Time;durP1;ratioP1;P1;durP2;ratioP2;P2;SDS_P1;SDS_P2;PMS_P1;PMS_P2;Temp;Humidity;BMP_temperature;BMP_pressure;BME280_temperature;BME280_humidity;BME280_pressure;Samples;Min_cycle;Max_cycle;Signal;HPM_P1;HPM_P2
2021/04/14 00:00:34;;;;;;;1.30;0.70;;;18.60;47.90;;;;;;10369546;28;20584;-68
2021/04/14 00:05:57;;;;;;;2.10;0.90;;;18.60;48.00;;;;;;10369699;28;20237;-67
2021/04/14 00:11:21;;;;;;;1.47;0.70;;;18.60;48.00;;;;;;10369173;28;20214;-68
2021/04/14 00:16:42;;;;;;;2.53;0.83;;;18.60;47.90;;;;;;10360306;28;20230;-69
2021/04/14 00:22:05;;;;;;;1.37;0.70;;;18.60;48.00;;;;;;10371507;28;20199;-68
2021/04/14 00:27:26;;;;;;;3.00;0.73;;;18.60;48.10;;;;;;10369802;28;20222;-69
2021/04/14 00:32:48;;;;;;;1.83;0.80;;;18.60;48.00;;;;;;10378911;28;20210;-68
2021/04/14 00:38:13;;;;;;;1.07;0.67;;;18.60;48.00;;;;;;10378115;28;20221;-69
2021/04/14 00:43:36;;;;;;;1.00;0.50;;;18.60;48.00;;;;;;10377923;28;20601;-69
2021/04/14 00:48:58;;;;;;;1.50;0.83;;;18.60;48.20;;;;;;10377122;28;20195;-68
2021/04/14 00:54:20;;;;;;;2.57;0.90;;;18.60;48.20;;;;;;10376104;28;20222;-69
2021/04/14 00:59:42;;;;;;;1.73;0.77;;;18.60;48.10;;;;;;10373474;28;20199;-69
2021/04/14 01:05:05;;;;;;;1.17;0.60;;;18.60;48.20;;;;;;10375217;28;20223;-68
2021/04/14 01:10:28;;;;;;;1.73;0.50;;;18.60;48.20;;;;;;10374881;28;20202;-68
2021/04/14 01:15:51;;;;;;;1.40;0.80;;;18.50;48.10;;;;;;10375637;28;20222;-68
2021/04/14 01:21:19;;;;;;;2.27;0.63;;;18.60;48.10;;;;;;10375679;28;20202;-68
2021/04/14 01:26:41;;;;;;;1.43;0.70;;;18.60;48.20;;;;;;10374841;28;20613;-69
2021/04/14 01:32:03;;;;;;;1.63;0.77;;;18.60;48.20;;;;;;10373819;28;20589;-68
2021/04/14 01:37:25;;;;;;;0.80;0.50;;;18.50;48.20;;;;;;10375854;28;20218;-69
2021/04/14 01:42:48;;;;;;;1.27;0.60;;;18.50;48.10;;;;;;10374353;28;20199;-68
2021/04/14 01:48:11;;;;;;;1.67;0.50;;;18.50;48.20;;;;;;10373995;28;20230;-68
2021/04/14 01:53:33;;;;;;;1.30;0.53;;;18.50;48.20;;;;;;10374912;28;20218;-68
2021/04/14 01:58:55;;;;;;;1.57;0.60;;;18.50;48.20;;;;;;10373435;28;20230;-68
2021/04/14 02:04:17;;;;;;;1.87;0.60;;;18.50;48.10;;;;;;10372497;28;20241;-68
2021/04/14 02:09:39;;;;;;;1.77;0.80;;;18.50;48.20;;;;;;10372743;28;20194;-69
2021/04/14 02:15:01;;;;;;;1.20;0.50;;;18.60;48.30;;;;;;10372601;28;20214;-68
2021/04/14 02:20:24;;;;;;;2.27;0.50;;;18.50;48.30;;;;;;10364796;28;20222;-69
2021/04/14 02:25:47;;;;;;;2.20;0.60;;;18.50;48.10;;;;;;10370509;28;20265;-68
2021/04/14 02:31:09;;;;;;;1.07;0.60;;;18.50;48.20;;;;;;10411422;23;20486;-61
2021/04/14 02:36:31;;;;;;;1.07;0.50;;;18.50;48.30;;;;;;10371514;28;20260;-61
2021/04/14 02:41:54;;;;;;;1.37;0.50;;;18.50;48.30;;;;;;10363929;28;20224;-61
2021/04/14 02:47:16;;;;;;;1.13;0.60;;;18.50;48.30;;;;;;10371454;28;20217;-61
2021/04/14 02:52:37;;;;;;;0.67;0.50;;;18.50;48.20;;;;;;10366555;28;20233;-61
2021/04/14 02:58:00;;;;;;;1.50;0.57;;;18.50;48.30;;;;;;10369453;28;20206;-61
2021/04/14 03:03:27;;;;;;;1.57;0.80;;;18.50;48.30;;;;;;10370383;28;20215;-61
2021/04/14 03:08:48;;;;;;;2.17;0.73;;;18.50;48.30;;;;;;10370129;28;20195;-61
2021/04/14 03:14:11;;;;;;;1.67;0.80;;;18.50;48.30;;;;;;10371531;28;20256;-61
2021/04/14 03:19:33;;;;;;;2.13;0.70;;;18.50;48.30;;;;;;10370275;28;20194;-61
2021/04/14 03:24:55;;;;;;;1.07;0.50;;;18.50;48.30;;;;;;10370898;28;20214;-61
2021/04/14 03:30:19;;;;;;;1.53;0.63;;;18.50;48.30;;;;;;10370722;28;20641;-60
2021/04/14 03:35:41;;;;;;;1.07;0.50;;;18.50;48.20;;;;;;10369673;28;20545;-60
2021/04/14 03:41:03;;;;;;;1.00;0.50;;;18.50;48.30;;;;;;10362831;28;20222;-62
2021/04/14 03:46:26;;;;;;;1.77;0.60;;;18.50;48.30;;;;;;10370645;28;20248;-61
2021/04/14 03:51:48;;;;;;;0.83;0.50;;;18.50;48.10;;;;;;10369951;28;20584;-61
2021/04/14 03:57:10;;;;;;;1.23;0.50;;;18.50;48.00;;;;;;10357736;28;20403;-61
2021/04/14 04:02:32;;;;;;;0.93;0.50;;;18.60;48.00;;;;;;10325773;28;20485;-60
2021/04/14 04:07:54;;;;;;;0.70;0.40;;;18.60;47.90;;;;;;10326536;28;20199;-61
2021/04/14 04:13:17;;;;;;;1.13;0.40;;;18.60;48.00;;;;;;10356696;28;20265;-61
2021/04/14 04:18:39;;;;;;;0.97;0.50;;;18.60;48.00;;;;;;10367209;28;20213;-61
2021/04/14 04:24:01;;;;;;;0.77;0.60;;;18.60;48.00;;;;;;10366776;28;20210;-63
2021/04/14 04:29:22;;;;;;;1.27;0.67;;;18.60;48.00;;;;;;10369217;28;20212;-62
2021/04/14 04:34:45;;;;;;;0.77;0.40;;;18.70;48.00;;;;;;10367294;28;20218;-63
2021/04/14 04:40:08;;;;;;;1.00;0.40;;;18.70;48.00;;;;;;10368826;28;20300;-62
2021/04/14 04:45:31;;;;;;;2.30;0.50;;;18.70;48.00;;;;;;10368025;28;20202;-62
2021/04/14 04:50:54;;;;;;;1.00;0.33;;;18.70;48.00;;;;;;10366833;28;20802;-61
2021/04/14 04:56:17;;;;;;;0.40;0.40;;;18.70;47.90;;;;;;10368271;28;20672;-60
2021/04/14 05:01:38;;;;;;;1.50;0.60;;;18.70;47.90;;;;;;10367025;28;20627;-60
2021/04/14 05:07:01;;;;;;;1.90;0.83;;;18.70;47.70;;;;;;10367620;28;20198;-62
2021/04/14 05:12:23;;;;;;;1.33;0.70;;;18.70;47.70;;;;;;10373225;28;20237;-62
2021/04/14 05:17:44;;;;;;;1.10;0.60;;;18.70;47.80;;;;;;10374395;28;20252;-63
2021/04/14 05:23:08;;;;;;;2.10;0.70;;;18.70;47.80;;;;;;10370339;28;20219;-63
2021/04/14 05:28:30;;;;;;;1.03;0.53;;;18.70;47.80;;;;;;10372574;28;20213;-62
2021/04/14 05:33:51;;;;;;;1.13;0.70;;;18.70;47.70;;;;;;10374607;28;20276;-62
2021/04/14 05:39:14;;;;;;;1.23;0.50;;;18.70;47.80;;;;;;10374619;28;20321;-62
2021/04/14 05:44:35;;;;;;;1.40;0.70;;;18.70;47.80;;;;;;10373524;28;20222;-60
2021/04/14 05:49:57;;;;;;;0.67;0.50;;;18.70;47.80;;;;;;10372831;28;20234;-62
2021/04/14 05:55:21;;;;;;;1.37;0.60;;;18.70;47.70;;;;;;10374413;28;20692;-60
2021/04/14 06:00:43;;;;;;;1.23;0.97;;;18.70;47.80;;;;;;10360249;28;20222;-59
2021/04/14 06:06:05;;;;;;;4.00;1.33;;;18.60;46.80;;;;;;10365813;28;20329;-60
2021/04/14 06:11:29;;;;;;;4.30;1.60;;;18.50;44.80;;;;;;10370592;28;20229;-61
2021/04/14 06:16:51;;;;;;;3.87;1.33;;;18.40;43.80;;;;;;10372189;28;20560;-61
2021/04/14 06:22:12;;;;;;;3.57;1.50;;;18.40;42.90;;;;;;10372206;28;20217;-60
2021/04/14 06:27:38;;;;;;;5.17;1.80;;;18.30;42.10;;;;;;10362457;28;20210;-61
2021/04/14 06:33:02;;;;;;;4.43;1.83;;;18.30;41.80;;;;;;10350723;28;20215;-61
2021/04/14 06:38:26;;;;;;;4.17;1.70;;;18.30;41.40;;;;;;10367182;28;20198;-60
2021/04/14 06:44:01;;;;;;;6.35;2.00;;;18.40;43.10;;;;;;10368256;28;20471;-59
2021/04/14 06:49:31;;;;;;;10.67;2.40;;;19.50;39.00;;;;;;10370002;28;20845;-67
